Time;durP1;ratioP1;P1;durP2;ratioP2;P2;SDS_P1;SDS_P2;PMS_P1;PMS_P2;Temp;Humidity;BMP_temperature;BMP_pressure;BME280_temperature;BME280_humidity;BME280_pressure;Samples;Min_cycle;Max_cycle;Signal;HPM_P1;HPM_P2
2022/04/29 00:01:59;;;;;;;18.42;8.98;;;;;;;;;;5033660;28;20033;-61
2022/04/29 00:04:26;;;;;;;15.40;8.45;;;;;;;;;;5033081;28;20029;-61
2022/04/29 00:06:52;;;;;;;15.77;8.25;;;;;;;;;;5033520;28;20459;-61
2022/04/29 00:09:17;;;;;;;16.48;7.95;;;;;;;;;;5033611;28;20104;-60
2022/04/29 00:11:43;;;;;;;13.90;7.30;;;;;;;;;;5033341;28;20038;-61
2022/04/29 00:14:09;;;;;;;13.07;7.32;;;;;;;;;;5033455;28;20025;-62
2022/04/29 00:16:35;;;;;;;17.45;8.60;;;;;;;;;;5033278;28;20458;-62
2022/04/29 00:19:01;;;;;;;16.55;9.25;;;;;;;;;;5033040;28;20109;-61
2022/04/29 00:21:26;;;;;;;12.65;7.15;;;;;;;;;;5033054;28;20025;-61
2022/04/29 00:23:52;;;;;;;16.35;8.23;;;;;;;;;;5033027;28;20074;-62
2022/04/29 00:26:18;;;;;;;17.27;7.82;;;;;;;;;;5032413;28;20449;-61
2022/04/29 00:28:43;;;;;;;14.95;8.23;;;;;;;;;;5033094;28;20021;-61
2022/04/29 00:31:09;;;;;;;20.20;11.02;;;;;;;;;;5033124;28;20068;-61
2022/04/29 00:33:34;;;;;;;26.25;12.60;;;;;;;;;;5032922;28;20411;-62
2022/04/29 00:35:59;;;;;;;24.52;11.45;;;;;;;;;;5032979;28;20108;-60
2022/04/29 00:38:25;;;;;;;21.42;10.32;;;;;;;;;;5015254;28;20029;-62
2022/04/29 00:40:50;;;;;;;29.38;11.93;;;;;;;;;;5032845;28;20108;-61
2022/04/29 00:43:16;;;;;;;38.55;14.18;;;;;;;;;;5032855;28;20025;-61
2022/04/29 00:45:41;;;;;;;25.42;11.02;;;;;;;;;;5032741;28;20518;-61
2022/04/29 00:48:08;;;;;;;22.27;10.27;;;;;;;;;;5032565;28;20075;-61
2022/04/29 00:50:35;;;;;;;23.02;10.70;;;;;;;;;;5032821;28;20033;-62
2022/04/29 00:53:02;;;;;;;22.15;10.15;;;;;;;;;;5032643;28;20037;-61
2022/04/29 00:55:29;;;;;;;20.63;8.82;;;;;;;;;;5032661;28;20028;-61
2022/04/29 00:58:17;;;;;;;22.17;8.95;;;;;;;;;;5032634;28;20025;-63
2022/04/29 01:00:43;;;;;;;18.95;8.82;;;;;;;;;;5032808;28;20463;-61
2022/04/29 01:03:11;;;;;;;19.08;8.93;;;;;;;;;;5032277;28;20033;-61
2022/04/29 01:05:39;;;;;;;17.05;8.98;;;;;;;;;;5032530;28;20036;-62
2022/04/29 01:08:05;;;;;;;17.98;8.18;;;;;;;;;;5032570;28;20033;-62
2022/04/29 01:10:31;;;;;;;14.57;7.70;;;;;;;;;;5032427;28;20079;-61
2022/04/29 01:13:03;;;;;;;21.45;7.97;;;;;;;;;;5032511;28;20029;-63
2022/04/29 01:15:29;;;;;;;13.40;7.43;;;;;;;;;;5032338;28;20056;-61
2022/04/29 01:18:01;;;;;;;17.90;7.63;;;;;;;;;;5032223;28;20025;-60
2022/04/29 01:20:29;;;;;;;16.13;7.78;;;;;;;;;;5032394;28;20475;-61
2022/04/29 01:22:56;;;;;;;12.48;7.18;;;;;;;;;;5032109;28;20077;-61
2022/04/29 01:25:21;;;;;;;14.20;8.05;;;;;;;;;;5032237;28;20060;-61
2022/04/29 01:27:49;;;;;;;11.77;7.30;;;;;;;;;;5032296;28;20057;-61
2022/04/29 01:30:18;;;;;;;13.35;7.30;;;;;;;;;;5032371;28;20459;-61
2022/04/29 01:32:44;;;;;;;14.77;7.72;;;;;;;;;;5032169;28;20031;-61
2022/04/29 01:35:11;;;;;;;12.95;7.32;;;;;;;;;;5014614;28;20475;-61
2022/04/29 01:37:38;;;;;;;13.70;7.63;;;;;;;;;;5035428;28;20104;-62
2022/04/29 01:40:05;;;;;;;15.95;7.53;;;;;;;;;;5036518;28;20414;-61
2022/04/29 01:42:31;;;;;;;12.98;7.63;;;;;;;;;;5036300;28;20025;-61
2022/04/29 01:44:57;;;;;;;13.65;7.72;;;;;;;;;;5036147;28;20033;-61
2022/04/29 01:47:22;;;;;;;14.00;7.47;;;;;;;;;;5036089;28;20030;-61
2022/04/29 01:49:48;;;;;;;13.35;7.40;;;;;;;;;;5036304;28;20018;-62
2022/04/29 01:52:14;;;;;;;15.05;8.10;;;;;;;;;;5036181;28;20101;-61
2022/04/29 01:54:39;;;;;;;11.30;6.93;;;;;;;;;;5035964;28;20038;-61
2022/04/29 01:57:06;;;;;;;17.77;7.80;;;;;;;;;;5035993;28;20030;-62
2022/04/29 01:59:32;;;;;;;13.27;7.50;;;;;;;;;;5035973;28;20029;-61
2022/04/29 02:01:58;;;;;;;13.90;7.93;;;;;;;;;;5035914;28;20025;-61
2022/04/29 02:04:24;;;;;;;15.40;7.20;;;;;;;;;;5035760;28;20075;-62
2022/04/29 02:06:50;;;;;;;14.93;7.70;;;;;;;;;;5035861;28;20498;-61
2022/04/29 02:09:15;;;;;;;14.43;7.75;;;;;;;;;;5035742;28;20060;-61
2022/04/29 02:12:03;;;;;;;12.63;7.35;;;;;;;;;;5035637;28;20040;-61
2022/04/29 02:14:27;;;;;;;12.63;7.10;;;;;;;;;;5035301;28;20429;-60
2022/04/29 02:16:53;;;;;;;19.00;8.68;;;;;;;;;;5035858;28;20033;-61
2022/04/29 02:19:18;;;;;;;15.80;8.20;;;;;;;;;;5035720;28;20071;-61
2022/04/29 02:21:44;;;;;;;20.80;9.82;;;;;;;;;;5035523;28;20399;-61
2022/04/29 02:24:09;;;;;;;17.23;8.75;;;;;;;;;;5035339;28;20034;-61
2022/04/29 02:26:35;;;;;;;18.17;9.63;;;;;;;;;;5035458;28;20040;-61
2022/04/29 02:29:01;;;;;;;16.95;8.40;;;;;;;;;;5035190;28;20123;-61
2022/04/29 02:31:26;;;;;;;18.67;9.18;;;;;;;;;;5035498;28;20520;-60
2022/04/29 02:33:52;;;;;;;18.85;9.07;;;;;;;;;;5035358;28;20018;-62
2022/04/29 02:36:17;;;;;;;16.77;9.27;;;;;;;;;;5035353;28;20039;-61
2022/04/29 02:38:44;;;;;;;15.25;8.75;;;;;;;;;;5035274;28;20379;-62
2022/04/29 02:41:09;;;;;;;15.10;8.57;;;;;;;;;;5035201;28;20040;-61
2022/04/29 02:43:35;;;;;;;14.65;8.35;;;;;;;;;;5035082;28;20022;-61
2022/04/29 02:46:01;;;;;;;21.25;9.30;;;;;;;;;;5034963;28;20390;-61
2022/04/29 02:48:26;;;;;;;16.88;8.45;;;;;;;;;;5034476;28;20087;-61
2022/04/29 02:50:52;;;;;;;19.58;8.80;;;;;;;;;;5035020;28;20025;-61
2022/04/29 02:53:17;;;;;;;19.60;8.55;;;;;;;;;;5034915;28;20037;-61
2022/04/29 02:55:43;;;;;;;21.55;8.15;;;;;;;;;;5034835;28;20022;-61
2022/04/29 02:58:08;;;;;;;15.30;8.70;;;;;;;;;;5034642;28;20021;-60
2022/04/29 03:00:34;;;;;;;21.02;8.90;;;;;;;;;;5034957;28;20021;-61
2022/04/29 03:02:59;;;;;;;20.30;8.40;;;;;;;;;;5034957;28;20021;-61
2022/04/29 03:05:26;;;;;;;18.45;8.55;;;;;;;;;;5034712;28;20044;-61
2022/04/29 03:07:51;;;;;;;16.40;8.15;;;;;;;;;;5034671;28;20490;-61
2022/04/29 03:10:17;;;;;;;20.48;9.38;;;;;;;;;;5034727;28;20033;-61
2022/04/29 03:12:43;;;;;;;23.23;10.20;;;;;;;;;;5034428;28;20375;-62
2022/04/29 03:15:18;;;;;;;14.95;8.55;;;;;;;;;;5034531;28;20041;-61
2022/04/29 03:20:36;;;;;;;17.75;9.10;;;;;;;;;;5034914;28;20075;-61
2022/04/29 03:23:02;;;;;;;14.85;7.95;;;;;;;;;;5034104;28;20045;-60
2022/04/29 03:25:28;;;;;;;24.20;9.52;;;;;;;;;;5034242;28;20032;-61
2022/04/29 03:27:55;;;;;;;15.02;8.32;;;;;;;;;;5034188;28;20029;-62
2022/04/29 03:30:21;;;;;;;20.08;8.63;;;;;;;;;;5034370;28;20037;-61
2022/04/29 03:32:55;;;;;;;16.25;7.97;;;;;;;;;;5016522;28;20025;-61
2022/04/29 03:35:21;;;;;;;18.52;8.00;;;;;;;;;;5034176;28;20360;-60
2022/04/29 03:37:51;;;;;;;18.77;8.38;;;;;;;;;;5034157;28;20037;-61
2022/04/29 03:40:17;;;;;;;28.20;9.35;;;;;;;;;;5034133;28;20033;-61
2022/04/29 03:42:43;;;;;;;16.88;8.00;;;;;;;;;;5033941;28;20025;-61
2022/04/29 03:45:09;;;;;;;18.15;8.75;;;;;;;;;;5033725;28;20029;-61
2022/04/29 03:47:34;;;;;;;19.15;8.05;;;;;;;;;;5033977;28;20051;-61
2022/04/29 03:50:01;;;;;;;26.08;8.45;;;;;;;;;;5034032;28;20518;-61
2022/04/29 03:52:27;;;;;;;20.98;8.70;;;;;;;;;;5033879;28;20022;-61
2022/04/29 03:54:53;;;;;;;17.98;9.05;;;;;;;;;;5033949;28;20029;-62
2022/04/29 03:57:18;;;;;;;26.42;8.52;;;;;;;;;;5033483;28;20029;-60
2022/04/29 03:59:43;;;;;;;22.33;7.93;;;;;;;;;;5032795;28;20025;-61
2022/04/29 04:02:09;;;;;;;23.23;9.10;;;;;;;;;;5033675;28;20026;-61
2022/04/29 04:04:34;;;;;;;23.77;9.48;;;;;;;;;;5033544;28;20026;-61
2022/04/29 04:07:03;;;;;;;25.70;8.30;;;;;;;;;;5033730;28;20155;-61
2022/04/29 04:09:29;;;;;;;22.13;7.72;;;;;;;;;;5033453;28;20037;-61
2022/04/29 04:11:54;;;;;;;27.60;7.82;;;;;;;;;;5033270;28;20033;-61
2022/04/29 04:14:20;;;;;;;22.27;8.13;;;;;;;;;;5033480;28;20034;-61
2022/04/29 04:16:46;;;;;;;18.85;8.18;;;;;;;;;;5033511;28;20467;-63
2022/04/29 04:19:12;;;;;;;18.98;7.82;;;;;;;;;;5033121;28;20034;-63
2022/04/29 04:21:48;;;;;;;19.33;7.80;;;;;;;;;;5070205;28;20827;-63
2022/04/29 04:24:14;;;;;;;18.38;7.30;;;;;;;;;;5069759;28;20037;-63
2022/04/29 04:26:40;;;;;;;19.85;7.55;;;;;;;;;;5069894;28;20049;-63
2022/04/29 04:29:06;;;;;;;18.80;6.47;;;;;;;;;;5069928;28;20410;-63
2022/04/29 04:31:31;;;;;;;21.33;7.95;;;;;;;;;;5069889;28;20107;-63
2022/04/29 04:33:57;;;;;;;17.95;6.18;;;;;;;;;;5069824;28;20020;-63
2022/04/29 04:36:22;;;;;;;23.02;6.65;;;;;;;;;;5069673;28;20051;-63
2022/04/29 04:38:48;;;;;;;12.98;6.97;;;;;;;;;;5069722;28;20029;-63
2022/04/29 04:41:16;;;;;;;15.00;6.72;;;;;;;;;;5069218;28;20089;-64
2022/04/29 04:43:42;;;;;;;15.40;6.47;;;;;;;;;;5069556;28;20036;-63
2022/04/29 04:46:09;;;;;;;14.50;6.47;;;;;;;;;;5069716;28;20064;-63
2022/04/29 04:48:35;;;;;;;10.40;5.93;;;;;;;;;;5068303;28;20021;-64
2022/04/29 04:51:03;;;;;;;12.10;5.90;;;;;;;;;;5069384;28;20029;-64
2022/04/29 04:53:29;;;;;;;12.75;6.65;;;;;;;;;;5069455;28;20052;-64
2022/04/29 04:55:54;;;;;;;11.73;6.22;;;;;;;;;;5069169;28;20528;-64
2022/04/29 04:58:20;;;;;;;15.20;5.97;;;;;;;;;;5069323;28;20169;-64
2022/04/29 05:00:45;;;;;;;11.15;5.53;;;;;;;;;;5069259;28;20039;-64
2022/04/29 05:03:11;;;;;;;12.52;5.55;;;;;;;;;;5069257;28;20057;-64
2022/04/29 05:05:36;;;;;;;10.23;5.53;;;;;;;;;;5069143;28;20040;-64
2022/04/29 05:08:02;;;;;;;11.50;4.75;;;;;;;;;;5069347;28;20071;-64
2022/04/29 05:10:28;;;;;;;12.85;6.05;;;;;;;;;;5068872;28;20546;-64
2022/04/29 05:12:53;;;;;;;10.48;4.78;;;;;;;;;;5069088;28;20035;-64
2022/04/29 05:15:19;;;;;;;12.73;5.03;;;;;;;;;;5068897;28;20525;-63
2022/04/29 05:17:44;;;;;;;13.93;5.82;;;;;;;;;;5068913;28;20067;-64
2022/04/29 05:20:11;;;;;;;11.18;4.72;;;;;;;;;;5068293;28;20072;-62
2022/04/29 05:22:37;;;;;;;10.00;4.90;;;;;;;;;;5068611;28;20028;-62
2022/04/29 05:25:04;;;;;;;9.32;4.57;;;;;;;;;;5068309;28;20024;-62
2022/04/29 05:27:30;;;;;;;8.95;3.97;;;;;;;;;;5068601;28;20074;-62
2022/04/29 05:29:57;;;;;;;9.90;4.70;;;;;;;;;;5068689;28;20021;-63
2022/04/29 05:32:24;;;;;;;16.42;4.90;;;;;;;;;;5059287;28;20029;-62
2022/04/29 05:34:50;;;;;;;12.65;4.90;;;;;;;;;;5055378;28;20463;-62
2022/04/29 05:37:16;;;;;;;14.60;4.93;;;;;;;;;;5055341;28;20033;-63
2022/04/29 05:42:26;;;;;;;16.70;4.82;;;;;;;;;;5055623;28;20414;-63
2022/04/29 05:44:51;;;;;;;20.83;5.25;;;;;;;;;;5055123;28;20025;-63
2022/04/29 05:47:17;;;;;;;13.77;5.30;;;;;;;;;;5055160;28;20032;-62
2022/04/29 05:49:43;;;;;;;17.17;5.68;;;;;;;;;;5054807;28;20021;-62
2022/04/29 05:52:10;;;;;;;15.02;5.65;;;;;;;;;;5054857;28;20545;-62
2022/04/29 05:54:36;;;;;;;15.20;5.80;;;;;;;;;;5054849;28;20379;-62
2022/04/29 05:57:03;;;;;;;15.05;5.20;;;;;;;;;;5054918;28;20028;-62
2022/04/29 05:59:29;;;;;;;9.80;5.10;;;;;;;;;;5054827;28;20021;-62
2022/04/29 06:01:55;;;;;;;17.45;6.40;;;;;;;;;;5054867;28;20031;-61
2022/04/29 06:04:21;;;;;;;17.20;5.30;;;;;;;;;;5054705;28;20033;-63
2022/04/29 06:06:47;;;;;;;12.88;4.75;;;;;;;;;;5054322;28;20466;-63
2022/04/29 06:09:12;;;;;;;11.60;4.70;;;;;;;;;;5054568;28;20051;-64
2022/04/29 06:11:38;;;;;;;13.25;4.35;;;;;;;;;;5053204;28;20090;-63
2022/04/29 06:14:03;;;;;;;12.80;5.20;;;;;;;;;;5054589;28;20035;-63
2022/04/29 06:16:29;;;;;;;14.77;4.53;;;;;;;;;;5054537;28;20025;-63
2022/04/29 06:18:54;;;;;;;19.80;4.35;;;;;;;;;;5054623;28;20032;-63
2022/04/29 06:21:20;;;;;;;11.02;4.57;;;;;;;;;;5053931;28;20073;-63
2022/04/29 06:23:47;;;;;;;12.07;4.32;;;;;;;;;;5054392;28;20444;-64
2022/04/29 06:26:12;;;;;;;9.88;4.05;;;;;;;;;;5054419;28;20438;-63
2022/04/29 06:28:38;;;;;;;13.35;4.55;;;;;;;;;;5054018;28;20060;-63
2022/04/29 06:31:05;;;;;;;9.38;4.15;;;;;;;;;;5054382;28;20167;-63
2022/04/29 06:33:31;;;;;;;7.72;3.83;;;;;;;;;;5054094;28;20462;-63
2022/04/29 06:35:57;;;;;;;19.30;4.40;;;;;;;;;;5053912;28;20158;-63
2022/04/29 06:38:23;;;;;;;12.32;4.65;;;;;;;;;;5054164;28;20103;-63
2022/04/29 06:40:50;;;;;;;12.20;4.18;;;;;;;;;;5053942;28;20508;-63
2022/04/29 06:43:16;;;;;;;12.82;3.97;;;;;;;;;;5052993;28;20021;-63
2022/04/29 06:45:42;;;;;;;11.25;4.28;;;;;;;;;;5053961;28;20048;-63
2022/04/29 06:48:08;;;;;;;14.93;4.35;;;;;;;;;;5053747;28;20024;-64
2022/04/29 06:50:34;;;;;;;14.57;4.20;;;;;;;;;;5053727;28;20021;-64
2022/04/29 06:52:59;;;;;;;16.42;5.82;;;;;;;;;;5054020;28;20025;-64
2022/04/29 06:55:26;;;;;;;17.40;4.50;;;;;;;;;;5054011;28;20047;-63
2022/04/29 06:57:52;;;;;;;14.15;4.50;;;;;;;;;;5053847;28;20067;-63
2022/04/29 07:00:19;;;;;;;13.57;4.70;;;;;;;;;;5053711;28;20029;-63
2022/04/29 07:02:45;;;;;;;14.88;4.85;;;;;;;;;;5053738;28;20103;-63
2022/04/29 07:05:11;;;;;;;13.23;4.68;;;;;;;;;;5053485;28;20079;-63
2022/04/29 07:07:36;;;;;;;12.25;5.00;;;;;;;;;;5053736;28;20100;-63
2022/04/29 07:10:03;;;;;;;15.32;4.95;;;;;;;;;;5053695;28;20178;-63
2022/04/29 07:12:31;;;;;;;17.00;4.43;;;;;;;;;;5053549;28;20021;-63
2022/04/29 07:14:57;;;;;;;22.85;5.18;;;;;;;;;;5053515;28;20029;-63
2022/04/29 07:17:23;;;;;;;14.27;4.35;;;;;;;;;;5053457;28;20482;-62
2022/04/29 07:19:50;;;;;;;14.98;4.55;;;;;;;;;;5051186;28;20032;-63
2022/04/29 07:22:16;;;;;;;17.58;4.95;;;;;;;;;;5033524;28;20029;-63
2022/04/29 07:24:43;;;;;;;10.02;4.45;;;;;;;;;;5033150;28;20475;-63
2022/04/29 07:27:08;;;;;;;22.30;6.10;;;;;;;;;;5033387;28;20031;-63
2022/04/29 07:29:34;;;;;;;19.08;4.38;;;;;;;;;;5033396;28;20028;-63
2022/04/29 07:31:59;;;;;;;16.42;4.90;;;;;;;;;;5033548;28;20094;-64
2022/04/29 07:41:44;;;;;;;12.18;4.00;;;;;;;;;;5033040;28;20447;-64
2022/04/29 07:42:38;;;;;;;14.38;3.47;;;;;;;;;;5052737;28;20090;-63
2022/04/29 07:45:04;;;;;;;8.32;3.67;;;;;;;;;;5052790;28;20052;-63
2022/04/29 07:47:29;;;;;;;11.93;4.30;;;;;;;;;;5052945;28;20021;-63
2022/04/29 07:49:55;;;;;;;11.63;3.67;;;;;;;;;;5052239;28;20063;-62
2022/04/29 07:52:20;;;;;;;9.15;3.05;;;;;;;;;;5051541;28;20490;-63
2022/04/29 07:54:46;;;;;;;10.55;2.70;;;;;;;;;;5052261;28;20060;-63
2022/04/29 07:57:11;;;;;;;8.10;2.65;;;;;;;;;;5052539;28;20052;-63
2022/04/29 07:59:37;;;;;;;13.30;2.88;;;;;;;;;;5052506;28;20442;-63
2022/04/29 08:02:03;;;;;;;8.57;2.15;;;;;;;;;;5052386;28;20055;-71
2022/04/29 08:04:28;;;;;;;5.25;1.90;;;;;;;;;;5052105;28;20033;-69
2022/04/29 08:06:54;;;;;;;9.25;2.28;;;;;;;;;;5052300;28;20036;-71
2022/04/29 08:09:20;;;;;;;7.50;2.38;;;;;;;;;;5052164;28;20413;-63
2022/04/29 08:11:45;;;;;;;9.85;2.40;;;;;;;;;;5052425;28;20044;-62
2022/04/29 08:14:11;;;;;;;10.43;2.95;;;;;;;;;;5052212;28;20488;-62
2022/04/29 08:16:36;;;;;;;15.52;3.15;;;;;;;;;;5052155;28;20036;-62
2022/04/29 08:19:03;;;;;;;13.85;3.53;;;;;;;;;;5052084;28;20454;-61
2022/04/29 08:21:28;;;;;;;13.55;2.60;;;;;;;;;;5051777;28;20057;-61
2022/04/29 08:23:54;;;;;;;9.23;2.72;;;;;;;;;;5052073;28;20025;-62
2022/04/29 08:26:19;;;;;;;6.88;2.90;;;;;;;;;;5052060;28;20021;-62
2022/04/29 08:28:45;;;;;;;9.68;2.70;;;;;;;;;;5052155;28;20053;-62
2022/04/29 08:31:11;;;;;;;8.90;3.35;;;;;;;;;;5052365;28;20143;-62
2022/04/29 08:33:36;;;;;;;11.05;2.45;;;;;;;;;;5050608;28;20447;-61
2022/04/29 08:36:03;;;;;;;9.90;2.70;;;;;;;;;;5043748;28;20037;-61
2022/04/29 08:38:28;;;;;;;8.25;2.67;;;;;;;;;;5047280;28;20029;-62
2022/04/29 08:41:00;;;;;;;6.30;2.40;;;;;;;;;;5036110;28;20049;-63
2022/04/29 08:43:26;;;;;;;11.07;2.60;;;;;;;;;;5046318;28;20064;-62
2022/04/29 08:45:51;;;;;;;8.52;2.40;;;;;;;;;;5051962;28;20532;-63
2022/04/29 08:48:18;;;;;;;8.70;3.05;;;;;;;;;;5051815;28;20029;-61
2022/04/29 08:50:44;;;;;;;8.07;2.45;;;;;;;;;;5052008;28;20025;-62
2022/04/29 08:53:10;;;;;;;10.52;3.83;;;;;;;;;;5051963;28;20113;-62
2022/04/29 08:58:39;;;;;;;6.38;2.40;;;;;;;;;;5044417;28;20052;-62
2022/04/29 09:01:13;;;;;;;8.23;2.50;;;;;;;;;;5029916;28;20041;-62
2022/04/29 09:03:42;;;;;;;9.98;2.47;;;;;;;;;;5047381;28;20102;-63
2022/04/29 09:06:08;;;;;;;10.80;2.45;;;;;;;;;;5051637;28;20063;-62
2022/04/29 09:08:41;;;;;;;8.68;2.55;;;;;;;;;;5055688;28;20036;-62
2022/04/29 09:11:08;;;;;;;7.90;2.13;;;;;;;;;;5055495;28;20075;-63
2022/04/29 09:13:38;;;;;;;7.85;2.67;;;;;;;;;;5055641;28;20036;-63
2022/04/29 09:16:07;;;;;;;;;;;;;;;;;;5055752;28;20070;-63
2022/04/29 09:18:55;;;;;;;15.02;4.22;;;;;;;;;;5055622;28;19923;-63
2022/04/29 09:21:25;;;;;;;10.70;3.60;;;;;;;;;;5055116;28;20124;-62
2022/04/29 09:23:59;;;;;;;8.60;2.30;;;;;;;;;;5053996;28;20119;-63
2022/04/29 09:26:27;;;;;;;6.70;2.25;;;;;;;;;;5055172;28;20524;-62
2022/04/29 09:28:53;;;;;;;8.25;2.30;;;;;;;;;;5055169;28;20025;-64
2022/04/29 09:31:19;;;;;;;6.70;2.20;;;;;;;;;;5055024;28;20039;-63
2022/04/29 09:33:55;;;;;;;4.88;2.40;;;;;;;;;;5055220;28;20573;-63
2022/04/29 09:36:26;;;;;;;7.40;2.45;;;;;;;;;;5055415;28;20036;-62
2022/04/29 09:42:05;;;;;;;6.72;2.10;;;;;;;;;;5055051;28;20082;-62
2022/04/29 09:44:32;;;;;;;7.93;2.40;;;;;;;;;;5054704;28;20061;-62
2022/04/29 09:47:12;;;;;;;6.07;2.25;;;;;;;;;;5054969;28;20100;-63
2022/04/29 09:49:38;;;;;;;7.47;2.15;;;;;;;;;;5054936;28;20021;-62
2022/04/29 09:52:05;;;;;;;5.60;2.05;;;;;;;;;;5054365;28;20035;-63
2022/04/29 09:54:37;;;;;;;9.93;2.65;;;;;;;;;;5053403;28;20033;-63
2022/04/29 09:57:08;;;;;;;9.75;2.28;;;;;;;;;;5054786;28;20025;-62
2022/04/29 09:59:40;;;;;;;8.20;2.67;;;;;;;;;;5054567;28;20427;-63
2022/04/29 10:02:06;;;;;;;6.22;2.20;;;;;;;;;;5054972;28;20032;-63
2022/04/29 10:04:35;;;;;;;5.75;2.42;;;;;;;;;;5054554;28;20032;-63
2022/04/29 10:07:06;;;;;;;12.82;3.10;;;;;;;;;;5058462;28;20409;-63
2022/04/29 10:09:33;;;;;;;5.55;2.15;;;;;;;;;;5067473;28;20040;-62
2022/04/29 10:12:03;;;;;;;8.02;2.42;;;;;;;;;;5064735;28;20056;-63
2022/04/29 10:14:30;;;;;;;5.95;2.13;;;;;;;;;;5059221;28;20025;-63
2022/04/29 10:22:34;;;;;;;6.80;1.88;;;;;;;;;;5057099;28;20093;-62
2022/04/29 10:25:05;;;;;;;5.70;1.40;;;;;;;;;;5060205;28;20112;-63
2022/04/29 10:27:32;;;;;;;9.30;2.00;;;;;;;;;;5050714;28;20431;-63
2022/04/29 10:29:58;;;;;;;6.45;1.90;;;;;;;;;;5056906;28;20031;-62
2022/04/29 10:32:23;;;;;;;8.02;1.60;;;;;;;;;;5054119;28;20100;-62
2022/04/29 10:34:49;;;;;;;12.30;1.90;;;;;;;;;;5053261;28;20025;-63
2022/04/29 10:37:15;;;;;;;7.85;1.60;;;;;;;;;;5053179;28;20037;-62
2022/04/29 10:39:42;;;;;;;3.90;1.42;;;;;;;;;;5053141;28;20040;-62
2022/04/29 10:42:09;;;;;;;7.30;1.80;;;;;;;;;;5052273;28;20477;-62
2022/04/29 10:44:55;;;;;;;7.80;2.40;;;;;;;;;;5052361;28;20033;-62
2022/04/29 10:47:42;;;;;;;10.23;1.90;;;;;;;;;;5050458;28;20032;-62
2022/04/29 10:50:29;;;;;;;8.30;1.95;;;;;;;;;;5051415;28;20024;-61
2022/04/29 10:53:05;;;;;;;13.40;2.15;;;;;;;;;;5051943;28;20078;-62
2022/04/29 10:55:34;;;;;;;6.88;1.70;;;;;;;;;;5052347;28;20033;-62
2022/04/29 10:58:04;;;;;;;4.80;1.75;;;;;;;;;;5052181;28;20020;-62
2022/04/29 11:00:30;;;;;;;10.98;2.25;;;;;;;;;;5052877;28;20025;-63
2022/04/29 11:03:35;;;;;;;8.02;1.70;;;;;;;;;;5050212;28;20028;-62
2022/04/29 11:06:14;;;;;;;6.93;1.80;;;;;;;;;;5051137;28;20020;-62
2022/04/29 11:08:41;;;;;;;8.45;1.90;;;;;;;;;;5050392;28;20021;-62
2022/04/29 11:11:08;;;;;;;6.75;1.75;;;;;;;;;;5052273;28;20017;-63
2022/04/29 11:13:37;;;;;;;11.90;2.08;;;;;;;;;;5052733;28;20398;-63
2022/04/29 11:16:12;;;;;;;7.82;2.10;;;;;;;;;;5052511;28;20438;-62
2022/04/29 11:18:41;;;;;;;8.38;2.10;;;;;;;;;;5049908;28;20032;-62
2022/04/29 11:26:49;;;;;;;11.00;1.75;;;;;;;;;;5050703;28;20035;-62
2022/04/29 11:29:17;;;;;;;9.60;1.80;;;;;;;;;;5052137;28;20052;-63
2022/04/29 11:31:42;;;;;;;8.25;1.92;;;;;;;;;;5052661;28;20421;-62
2022/04/29 11:34:13;;;;;;;8.80;2.08;;;;;;;;;;5052462;28;20021;-61
2022/04/29 11:36:39;;;;;;;6.55;2.05;;;;;;;;;;5051109;28;20041;-62
2022/04/29 11:39:18;;;;;;;6.60;1.60;;;;;;;;;;5052153;28;20392;-62
2022/04/29 11:41:59;;;;;;;7.45;2.20;;;;;;;;;;5049994;28;20067;-62
2022/04/29 11:44:38;;;;;;;7.63;2.10;;;;;;;;;;5050167;28;20021;-62
2022/04/29 11:47:04;;;;;;;7.18;2.15;;;;;;;;;;5049728;28;20036;-63
2022/04/29 11:49:32;;;;;;;10.68;1.80;;;;;;;;;;5052057;28;20057;-62
2022/04/29 11:52:19;;;;;;;3.78;1.50;;;;;;;;;;5051976;28;20032;-62
2022/04/29 11:54:55;;;;;;;11.20;2.03;;;;;;;;;;5049812;28;20029;-62
2022/04/29 11:57:26;;;;;;;10.07;2.03;;;;;;;;;;5049894;28;20067;-63
2022/04/29 11:59:51;;;;;;;10.63;1.83;;;;;;;;;;5052193;28;20025;-63
2022/04/29 12:02:19;;;;;;;9.55;1.77;;;;;;;;;;5051843;28;20347;-61
2022/04/29 12:05:00;;;;;;;10.75;1.95;;;;;;;;;;5051654;28;20023;-62
2022/04/29 12:07:28;;;;;;;10.13;2.42;;;;;;;;;;5049967;28;20025;-61
2022/04/29 12:09:54;;;;;;;10.70;2.42;;;;;;;;;;5051393;28;20033;-63
2022/04/29 12:12:30;;;;;;;9.52;3.08;;;;;;;;;;5051744;28;20028;-62
2022/04/29 12:14:58;;;;;;;5.22;1.83;;;;;;;;;;5044364;28;20026;-62
2022/04/29 12:17:35;;;;;;;6.30;1.50;;;;;;;;;;5032694;28;20083;-63
2022/04/29 12:20:01;;;;;;;12.18;2.05;;;;;;;;;;5032292;28;20112;-63
2022/04/29 12:22:34;;;;;;;7.57;1.95;;;;;;;;;;5037058;28;20095;-63
2022/04/29 12:25:22;;;;;;;9.82;1.80;;;;;;;;;;5046970;28;20017;-63
2022/04/29 12:28:23;;;;;;;9.07;1.70;;;;;;;;;;5047267;28;20056;-62
2022/04/29 12:36:59;;;;;;;10.02;1.85;;;;;;;;;;5050118;28;20040;-64
2022/04/29 12:39:35;;;;;;;13.50;1.73;;;;;;;;;;5032937;28;20056;-62
2022/04/29 12:42:12;;;;;;;6.85;1.40;;;;;;;;;;5051085;28;20056;-62
2022/04/29 12:45:14;;;;;;;7.90;1.35;;;;;;;;;;5053648;28;20040;-63
2022/04/29 12:47:50;;;;;;;7.03;1.60;;;;;;;;;;5053483;28;20045;-62
2022/04/29 12:50:28;;;;;;;7.82;1.75;;;;;;;;;;5053485;28;20053;-63
2022/04/29 12:53:01;;;;;;;6.15;1.95;;;;;;;;;;5027379;28;20029;-63
2022/04/29 12:55:31;;;;;;;7.65;1.23;;;;;;;;;;5023910;28;20041;-63
2022/04/29 12:58:15;;;;;;;3.90;1.20;;;;;;;;;;5033728;28;20071;-64
2022/04/29 13:00:48;;;;;;;2.95;1.13;;;;;;;;;;5014854;28;20042;-64
2022/04/29 13:03:17;;;;;;;18.20;1.90;;;;;;;;;;5013867;28;20526;-62
2022/04/29 13:05:43;;;;;;;11.70;2.40;;;;;;;;;;5013922;28;20037;-63
2022/04/29 13:08:09;;;;;;;8.00;1.63;;;;;;;;;;5030728;28;20037;-62
2022/04/29 13:10:51;;;;;;;8.43;1.85;;;;;;;;;;5035776;28;20072;-62
2022/04/29 13:13:19;;;;;;;12.88;2.00;;;;;;;;;;5035811;28;20033;-63
2022/04/29 13:15:45;;;;;;;10.65;1.73;;;;;;;;;;5036150;28;20474;-62
2022/04/29 13:18:11;;;;;;;8.45;1.50;;;;;;;;;;5055695;28;20108;-62
2022/04/29 13:20:38;;;;;;;7.15;1.50;;;;;;;;;;5045737;28;20049;-62
2022/04/29 13:23:04;;;;;;;4.28;1.40;;;;;;;;;;5042012;28;20025;-62
2022/04/29 13:25:30;;;;;;;10.02;1.55;;;;;;;;;;5055518;28;20029;-62
2022/04/29 13:27:56;;;;;;;6.63;1.55;;;;;;;;;;5055333;28;20108;-62
2022/04/29 13:30:21;;;;;;;5.47;1.20;;;;;;;;;;5055316;28;20116;-62
2022/04/29 13:32:47;;;;;;;6.13;1.67;;;;;;;;;;5055270;28;20028;-62
2022/04/29 13:35:15;;;;;;;8.35;1.45;;;;;;;;;;5055238;28;20086;-62
2022/04/29 13:37:40;;;;;;;5.70;1.30;;;;;;;;;;5054885;28;20075;-63
2022/04/29 13:40:08;;;;;;;8.05;2.03;;;;;;;;;;5055121;28;20029;-63
2022/04/29 13:42:34;;;;;;;11.88;1.73;;;;;;;;;;5054962;28;20059;-63
2022/04/29 13:45:01;;;;;;;5.72;1.75;;;;;;;;;;5053625;28;20056;-63
2022/04/29 13:47:27;;;;;;;5.70;1.67;;;;;;;;;;5054413;28;20490;-63
2022/04/29 13:49:54;;;;;;;7.70;1.70;;;;;;;;;;5054696;28;20029;-64
2022/04/29 13:55:04;;;;;;;9.25;1.92;;;;;;;;;;5054923;28;20075;-64
2022/04/29 13:57:29;;;;;;;6.40;1.17;;;;;;;;;;5054682;28;20029;-63
2022/04/29 13:59:55;;;;;;;6.65;1.50;;;;;;;;;;5054619;28;20021;-63
2022/04/29 14:02:20;;;;;;;9.25;1.92;;;;;;;;;;5054638;28;20465;-63
2022/04/29 14:04:46;;;;;;;5.70;1.83;;;;;;;;;;5054792;28;20382;-63
2022/04/29 14:07:13;;;;;;;11.15;2.13;;;;;;;;;;5054007;28;20040;-63
2022/04/29 14:09:39;;;;;;;6.63;1.60;;;;;;;;;;5054494;28;20111;-64
2022/04/29 14:12:05;;;;;;;10.65;2.22;;;;;;;;;;5054598;28;20526;-63
2022/04/29 14:14:31;;;;;;;5.75;1.92;;;;;;;;;;5054415;28;20060;-63
2022/04/29 14:16:56;;;;;;;25.58;8.70;;;;;;;;;;5054464;28;20068;-63
2022/04/29 14:19:22;;;;;;;11.13;2.38;;;;;;;;;;5054616;28;20094;-62
2022/04/29 14:21:47;;;;;;;7.63;1.98;;;;;;;;;;5053577;28;20053;-62
2022/04/29 14:24:13;;;;;;;11.30;2.17;;;;;;;;;;5053952;28;20052;-62
2022/04/29 14:26:38;;;;;;;6.47;1.60;;;;;;;;;;5054185;28;20036;-61
2022/04/29 14:29:04;;;;;;;12.75;2.30;;;;;;;;;;5054359;28;20056;-62
2022/04/29 14:31:30;;;;;;;10.38;1.85;;;;;;;;;;5054265;28;20031;-62
2022/04/29 14:33:59;;;;;;;5.30;1.95;;;;;;;;;;5053779;28;20075;-62
2022/04/29 14:36:28;;;;;;;8.45;1.60;;;;;;;;;;5054040;28;20029;-62
2022/04/29 14:38:54;;;;;;;5.28;1.52;;;;;;;;;;5054349;28;20128;-61
2022/04/29 14:41:19;;;;;;;15.20;1.70;;;;;;;;;;5053987;28;20486;-61
2022/04/29 14:43:45;;;;;;;9.55;1.83;;;;;;;;;;5053737;28;20029;-62
2022/04/29 14:46:11;;;;;;;13.35;2.45;;;;;;;;;;5053867;28;20036;-62
2022/04/29 14:48:38;;;;;;;11.13;2.08;;;;;;;;;;5053625;28;20108;-62
2022/04/29 14:51:04;;;;;;;9.05;1.92;;;;;;;;;;5053958;28;20029;-62
2022/04/29 14:53:33;;;;;;;7.40;2.80;;;;;;;;;;5053782;28;20028;-62
2022/04/29 14:55:59;;;;;;;4.70;1.40;;;;;;;;;;5053610;28;20041;-63
2022/04/29 14:58:25;;;;;;;7.95;2.03;;;;;;;;;;5053609;28;20379;-63
2022/04/29 15:00:50;;;;;;;9.18;1.50;;;;;;;;;;5067720;28;20547;-62
2022/04/29 15:03:15;;;;;;;7.20;1.88;;;;;;;;;;5073393;28;20036;-62
2022/04/29 15:05:42;;;;;;;7.78;1.50;;;;;;;;;;5072493;28;20020;-62
2022/04/29 15:08:08;;;;;;;8.70;1.75;;;;;;;;;;5060685;28;20378;-62
2022/04/29 15:16:02;;;;;;;10.48;2.08;;;;;;;;;;5053297;28;20092;-62
2022/04/29 15:18:28;;;;;;;8.98;2.30;;;;;;;;;;5052947;28;20033;-63
2022/04/29 15:20:53;;;;;;;11.23;1.67;;;;;;;;;;5041064;28;20056;-63